createdAt,value
2023-04-13T00:02:13.470Z,8.60
2023-04-13T00:04:40.390Z,8.50
2023-04-13T00:07:07.250Z,8.50
2023-04-13T00:09:34.099Z,8.60
2023-04-13T00:12:01.532Z,8.70
2023-04-13T00:14:34.101Z,8.70
2023-04-13T00:17:01.044Z,8.80
2023-04-13T00:19:28.627Z,8.80
2023-04-13T00:21:55.558Z,8.70
2023-04-13T00:24:22.866Z,8.70
2023-04-13T00:26:49.745Z,8.70
2023-04-13T00:29:16.650Z,8.80
2023-04-13T00:31:43.510Z,8.90
2023-04-13T00:34:10.490Z,8.90
2023-04-13T00:36:37.972Z,8.80
2023-04-13T00:39:04.883Z,8.90
2023-04-13T00:41:32.256Z,8.90
2023-04-13T00:44:01.016Z,8.90
2023-04-13T00:46:29.875Z,8.90
2023-04-13T00:48:58.283Z,8.90
2023-04-13T00:51:25.287Z,9.00
2023-04-13T00:53:52.718Z,9.00
2023-04-13T00:56:23.072Z,9.10
2023-04-13T00:58:49.987Z,9.10
2023-04-13T01:01:19.373Z,9.10
2023-04-13T01:03:46.336Z,9.10
2023-04-13T01:06:22.780Z,9.20
2023-04-13T01:09:02.702Z,9.20
2023-04-13T01:11:49.419Z,9.20
2023-04-13T01:14:38.860Z,9.20
2023-04-13T01:17:14.210Z,9.20
2023-04-13T01:19:58.184Z,9.20
2023-04-13T01:22:29.162Z,9.20
2023-04-13T01:25:05.985Z,9.30
2023-04-13T01:27:44.675Z,9.30
2023-04-13T01:30:13.477Z,9.30
2023-04-13T01:32:42.490Z,9.30
2023-04-13T01:35:10.794Z,9.30
2023-04-13T01:37:39.148Z,9.30
2023-04-13T01:40:11.242Z,9.40
2023-04-13T01:42:39.177Z,9.40
2023-04-13T01:45:11.434Z,9.30
2023-04-13T01:47:43.104Z,9.30
2023-04-13T01:50:22.515Z,9.40
2023-04-13T01:52:51.200Z,9.40
2023-04-13T01:55:18.912Z,9.40
2023-04-13T01:57:48.541Z,9.40
2023-04-13T02:00:18.767Z,9.50
2023-04-13T02:02:45.789Z,9.40
2023-04-13T02:05:12.921Z,9.50
2023-04-13T02:07:41.742Z,9.40
2023-04-13T02:10:09.180Z,9.40
2023-04-13T02:12:36.071Z,9.50
2023-04-13T02:15:03.065Z,9.50
2023-04-13T02:17:30.213Z,9.50
2023-04-13T02:19:58.031Z,9.40
2023-04-13T02:22:25.026Z,9.50
2023-04-13T02:24:51.915Z,9.50
2023-04-13T02:27:18.817Z,9.50
2023-04-13T02:29:45.697Z,9.50
2023-04-13T02:32:12.578Z,9.60
2023-04-13T02:34:40.052Z,9.60
2023-04-13T02:37:09.475Z,9.60
2023-04-13T02:39:37.292Z,9.70
2023-04-13T02:42:04.543Z,9.70
2023-04-13T02:44:31.423Z,9.80
2023-04-13T02:46:58.321Z,9.80
2023-04-13T02:49:25.185Z,9.80
2023-04-13T02:51:52.338Z,9.80
2023-04-13T02:54:19.638Z,9.90
2023-04-13T02:56:47.299Z,9.90
2023-04-13T02:59:14.809Z,9.90
2023-04-13T03:01:42.257Z,9.90
2023-04-13T03:04:09.369Z,9.90
2023-04-13T03:06:36.281Z,9.90
2023-04-13T03:09:04.259Z,10.00
2023-04-13T03:11:31.215Z,10.00
2023-04-13T03:13:58.873Z,10.00
2023-04-13T03:16:26.520Z,10.00
2023-04-13T03:18:54.627Z,10.00
2023-04-13T03:21:21.539Z,10.10
2023-04-13T03:23:48.437Z,10.20
2023-04-13T03:26:15.621Z,10.20
2023-04-13T03:28:42.481Z,10.20
2023-04-13T03:31:09.388Z,10.20
2023-04-13T03:33:37.223Z,10.20
2023-04-13T03:36:04.256Z,10.20
2023-04-13T03:38:31.134Z,10.20
2023-04-13T03:40:58.015Z,10.20
2023-04-13T03:43:24.860Z,10.10
2023-04-13T03:45:51.805Z,10.00
2023-04-13T03:48:19.120Z,10.10
2023-04-13T03:50:46.003Z,10.10
2023-04-13T03:53:12.869Z,10.10
2023-04-13T03:55:39.769Z,10.10
2023-04-13T03:58:07.398Z,10.10
2023-04-13T04:00:34.726Z,10.10
2023-04-13T04:03:02.060Z,10.10
2023-04-13T04:05:29.125Z,10.10
2023-04-13T04:07:55.974Z,10.10
2023-04-13T04:10:23.111Z,10.10
2023-04-13T04:12:49.973Z,10.10
2023-04-13T04:15:16.916Z,10.20
2023-04-13T04:17:43.821Z,10.20
2023-04-13T04:20:11.194Z,10.20
2023-04-13T04:22:38.545Z,10.20
2023-04-13T04:25:05.782Z,10.20
2023-04-13T04:27:38.133Z,10.20
2023-04-13T04:30:06.557Z,10.30
2023-04-13T04:32:36.678Z,10.30
2023-04-13T04:35:05.143Z,10.30
2023-04-13T04:37:37.461Z,10.30
2023-04-13T04:40:11.070Z,10.40
2023-04-13T04:42:38.120Z,10.40
2023-04-13T04:45:07.231Z,10.50
2023-04-13T04:47:41.868Z,10.50
2023-04-13T04:50:13.101Z,10.50
2023-04-13T04:52:40.903Z,10.50
2023-04-13T04:55:08.679Z,10.60
2023-04-13T04:57:36.269Z,10.50
2023-04-13T05:00:24.047Z,10.60
2023-04-13T05:02:51.212Z,10.60
2023-04-13T05:05:18.838Z,10.60
2023-04-13T05:07:46.209Z,10.60
2023-04-13T05:10:13.242Z,10.70
2023-04-13T05:12:40.157Z,10.70
2023-04-13T05:15:07.957Z,10.70
2023-04-13T05:17:36.434Z,10.80
2023-04-13T05:20:07.364Z,10.80
2023-04-13T05:22:34.278Z,10.90
2023-04-13T05:25:01.172Z,11.00
2023-04-13T05:27:28.059Z,11.10
2023-04-13T05:29:54.910Z,11.20
2023-04-13T05:32:21.785Z,11.20
2023-04-13T05:34:48.919Z,11.20
2023-04-13T05:37:16.132Z,11.20
2023-04-13T05:39:43.523Z,11.20
2023-04-13T05:42:10.387Z,11.20
2023-04-13T05:44:37.240Z,11.10
2023-04-13T05:47:04.121Z,11.20
2023-04-13T05:49:31.011Z,11.30
2023-04-13T05:51:57.832Z,11.40
2023-04-13T05:54:24.908Z,11.40
2023-04-13T05:56:51.725Z,11.50
2023-04-13T05:59:19.278Z,11.60
2023-04-13T06:01:46.516Z,11.70
2023-04-13T06:04:15.944Z,11.70
2023-04-13T06:06:43.074Z,11.80
2023-04-13T06:09:09.978Z,11.90
2023-04-13T06:11:36.948Z,12.10
2023-04-13T06:14:03.852Z,12.20
2023-04-13T06:16:31.014Z,12.30
2023-04-13T06:18:59.408Z,12.30
2023-04-13T06:21:28.695Z,12.40
2023-04-13T06:23:55.671Z,12.30
2023-04-13T06:26:22.715Z,12.30
2023-04-13T06:28:49.619Z,12.20
2023-04-13T06:31:16.749Z,12.10
2023-04-13T06:33:44.589Z,12.00
2023-04-13T06:36:11.822Z,12.00
2023-04-13T06:38:38.692Z,11.90
2023-04-13T06:41:05.759Z,11.90
2023-04-13T06:43:32.605Z,11.90
2023-04-13T06:46:01.691Z,12.00
2023-04-13T06:48:28.687Z,12.20
2023-04-13T06:50:59.839Z,12.80
2023-04-13T06:53:26.767Z,13.50
2023-04-13T06:55:53.759Z,13.80
2023-04-13T06:58:22.064Z,13.90
2023-04-13T07:00:48.993Z,14.40
2023-04-13T07:03:16.057Z,14.50
2023-04-13T07:05:45.127Z,14.50
2023-04-13T07:08:13.139Z,14.70
2023-04-13T07:10:41.168Z,14.80
2023-04-13T07:13:08.371Z,14.90
2023-04-13T07:15:37.827Z,15.10
2023-04-13T07:18:05.220Z,15.30
2023-04-13T07:20:32.148Z,15.40
2023-04-13T07:22:59.067Z,15.30
2023-04-13T07:25:26.189Z,15.60
2023-04-13T07:27:53.191Z,15.60
2023-04-13T07:30:20.223Z,15.50
2023-04-13T07:32:47.170Z,15.60
2023-04-13T07:35:14.143Z,15.90
2023-04-13T07:37:42.492Z,16.50
2023-04-13T07:40:10.168Z,16.80
2023-04-13T07:42:37.127Z,17.00
2023-04-13T07:45:04.232Z,16.70
2023-04-13T07:47:31.270Z,16.80
2023-04-13T07:49:58.150Z,17.10
2023-04-13T07:52:25.081Z,17.30
2023-04-13T07:54:51.964Z,17.00
2023-04-13T07:57:21.456Z,16.70
2023-04-13T07:59:48.504Z,16.60
2023-04-13T08:02:17.289Z,16.60
2023-04-13T08:04:44.976Z,16.40
2023-04-13T08:07:12.219Z,16.70
2023-04-13T08:09:42.827Z,16.90
2023-04-13T08:12:10.048Z,17.50
2023-04-13T08:14:37.306Z,18.20
2023-04-13T08:17:06.207Z,18.50
2023-04-13T08:19:34.094Z,18.80
2023-04-13T08:22:01.038Z,19.10
2023-04-13T08:24:29.321Z,19.50
2023-04-13T08:26:58.287Z,19.90
2023-04-13T08:29:25.770Z,20.30
2023-04-13T08:31:53.110Z,20.30
2023-04-13T08:34:20.504Z,20.30
2023-04-13T08:36:47.898Z,20.00
2023-04-13T08:39:15.078Z,19.90
2023-04-13T08:41:46.607Z,19.80
2023-04-13T08:44:14.873Z,20.10
2023-04-13T08:46:45.294Z,20.20
2023-04-13T08:49:13.357Z,20.40
2023-04-13T08:51:43.590Z,20.30
2023-04-13T08:54:12.935Z,20.20
2023-04-13T08:56:46.547Z,20.10
2023-04-13T08:59:16.265Z,19.90
2023-04-13T09:01:47.398Z,19.70
2023-04-13T09:04:20.066Z,19.40
2023-04-13T09:06:51.120Z,19.00
2023-04-13T09:09:20.679Z,18.40
2023-04-13T09:11:49.898Z,18.30
2023-04-13T09:14:22.317Z,17.80
2023-04-13T09:16:49.564Z,17.60
2023-04-13T09:19:17.396Z,17.60
2023-04-13T09:21:45.268Z,17.40
2023-04-13T09:24:12.934Z,17.10
2023-04-13T09:26:44.253Z,17.00
2023-04-13T09:29:14.938Z,17.00
2023-04-13T09:31:45.083Z,17.30
2023-04-13T09:34:13.636Z,18.20
2023-04-13T09:36:53.496Z,19.40
2023-04-13T09:39:26.918Z,19.70
2023-04-13T09:41:54.493Z,19.40
2023-04-13T09:44:24.882Z,19.80
2023-04-13T09:47:02.904Z,20.10
2023-04-13T09:49:42.567Z,19.90
2023-04-13T09:52:23.290Z,19.30
2023-04-13T09:54:55.729Z,19.30
2023-04-13T09:57:31.278Z,19.20
2023-04-13T10:00:01.552Z,19.40
2023-04-13T10:02:29.460Z,19.30
2023-04-13T10:04:57.721Z,19.70
2023-04-13T10:07:28.884Z,19.50
2023-04-13T10:09:55.866Z,19.40
2023-04-13T10:12:26.206Z,19.10
2023-04-13T10:15:02.837Z,19.10
2023-04-13T10:17:44.694Z,19.30
2023-04-13T10:20:13.960Z,19.20
2023-04-13T10:22:45.061Z,19.10
2023-04-13T10:25:31.426Z,19.40
2023-04-13T10:28:00.296Z,19.70
2023-04-13T10:30:27.858Z,19.50
2023-04-13T10:33:09.878Z,19.50
2023-04-13T10:35:37.994Z,19.40
2023-04-13T10:38:05.548Z,19.30
2023-04-13T10:40:48.883Z,19.10
2023-04-13T10:43:32.317Z,19.00
2023-04-13T10:46:09.980Z,18.90
2023-04-13T10:48:37.389Z,18.90
2023-04-13T10:51:04.475Z,18.80
2023-04-13T10:53:32.931Z,18.60
2023-04-13T10:56:01.475Z,18.50
2023-04-13T10:58:33.135Z,18.30
2023-04-13T11:01:00.600Z,18.40
2023-04-13T11:03:28.996Z,18.20
2023-04-13T11:05:58.384Z,18.30
2023-04-13T11:08:28.091Z,18.30
2023-04-13T11:10:57.098Z,18.20
2023-04-13T11:13:29.331Z,18.30
2023-04-13T11:16:04.945Z,18.10
2023-04-13T11:18:32.374Z,18.00
2023-04-13T11:20:59.257Z,18.00
2023-04-13T11:23:26.201Z,18.00
2023-04-13T11:26:01.976Z,18.00
2023-04-13T11:28:43.712Z,18.00
2023-04-13T11:31:12.112Z,18.00
2023-04-13T11:33:40.730Z,18.00
2023-04-13T11:36:09.809Z,18.00
2023-04-13T11:38:39.963Z,18.00
2023-04-13T11:43:37.334Z,18.00
2023-04-13T11:46:04.431Z,18.10
2023-04-13T11:48:31.750Z,18.30
2023-04-13T11:50:59.701Z,18.30
2023-04-13T11:53:27.801Z,18.30
2023-04-13T11:55:54.760Z,18.20
2023-04-13T11:58:21.655Z,18.40
2023-04-13T12:00:49.287Z,18.40
2023-04-13T12:03:34.190Z,18.30
2023-04-13T12:06:06.697Z,18.20
2023-04-13T12:08:34.243Z,18.10
2023-04-13T12:13:52.349Z,18.20
2023-04-13T12:19:09.727Z,18.50
2023-04-13T12:21:37.548Z,18.40
2023-04-13T12:24:06.571Z,18.20
2023-04-13T12:29:05.842Z,18.30
2023-04-13T12:31:37.641Z,18.30
2023-04-13T12:34:06.284Z,18.30
2023-04-13T12:36:35.477Z,18.30
2023-04-13T12:39:03.905Z,18.20
2023-04-13T12:41:30.780Z,18.20
2023-04-13T12:43:57.672Z,18.30
2023-04-13T12:46:25.294Z,18.40
2023-04-13T12:48:52.846Z,18.50
2023-04-13T12:51:19.752Z,18.50
2023-04-13T12:53:46.656Z,18.60
2023-04-13T12:56:13.611Z,18.60
2023-04-13T12:58:40.621Z,18.50
2023-04-13T13:01:08.549Z,18.40
2023-04-13T13:03:37.142Z,18.50
2023-04-13T13:06:05.750Z,18.60
2023-04-13T13:08:35.077Z,18.70
2023-04-13T13:11:03.850Z,18.80
2023-04-13T13:13:30.932Z,18.80
2023-04-13T13:15:57.788Z,18.80
2023-04-13T13:18:30.129Z,18.80
2023-04-13T13:21:02.543Z,18.70
2023-04-13T13:23:29.418Z,18.60
2023-04-13T13:26:17.765Z,18.50
2023-04-13T13:28:43.170Z,18.40
2023-04-13T13:31:10.923Z,18.20
2023-04-13T13:33:37.916Z,18.20
2023-04-13T13:36:04.983Z,18.30
2023-04-13T13:38:32.350Z,18.40
2023-04-13T13:40:59.696Z,18.40
2023-04-13T13:43:26.855Z,18.40
2023-04-13T13:45:53.745Z,18.30
2023-04-13T13:48:21.789Z,18.30
2023-04-13T13:50:48.618Z,18.30
2023-04-13T13:53:15.632Z,18.40
2023-04-13T13:55:42.600Z,18.30
2023-04-13T13:58:09.486Z,18.30
2023-04-13T14:00:36.751Z,18.20
2023-04-13T14:03:03.748Z,18.30
2023-04-13T14:05:30.900Z,18.20
2023-04-13T14:07:57.779Z,18.20
2023-04-13T14:10:24.692Z,18.30
2023-04-13T14:12:52.780Z,18.10
2023-04-13T14:15:20.318Z,18.10
2023-04-13T14:17:55.875Z,18.10
2023-04-13T14:20:34.482Z,18.10
2023-04-13T14:23:01.411Z,18.00
2023-04-13T14:25:28.249Z,18.00
2023-04-13T14:27:55.218Z,18.10
2023-04-13T14:30:24.401Z,18.00
2023-04-13T14:32:53.160Z,17.90
2023-04-13T14:35:20.234Z,17.90
2023-04-13T14:37:47.681Z,17.90
2023-04-13T14:40:17.212Z,17.80
2023-04-13T14:42:44.427Z,17.80
2023-04-13T14:45:12.529Z,17.90
2023-04-13T14:47:40.226Z,17.90
2023-04-13T14:50:08.473Z,17.90
2023-04-13T14:52:35.764Z,17.80
2023-04-13T14:55:02.835Z,17.80
2023-04-13T14:57:29.927Z,17.70
2023-04-13T14:59:56.988Z,17.70
2023-04-13T15:02:24.273Z,17.70
2023-04-13T15:04:51.554Z,17.60
2023-04-13T15:07:19.064Z,17.60
2023-04-13T15:09:45.958Z,17.50
2023-04-13T15:12:13.878Z,17.40
2023-04-13T15:14:46.629Z,17.40
2023-04-13T15:17:13.693Z,17.30
2023-04-13T15:19:40.572Z,17.30
2023-04-13T15:22:07.417Z,17.30
2023-04-13T15:24:34.315Z,17.20
2023-04-13T15:27:01.290Z,17.20
2023-04-13T15:29:28.216Z,17.20
2023-04-13T15:31:55.112Z,17.20
2023-04-13T15:34:22.062Z,17.10
2023-04-13T15:36:48.944Z,17.10
2023-04-13T15:39:15.969Z,17.10
2023-04-13T15:41:42.841Z,17.00
2023-04-13T15:44:09.740Z,17.00
2023-04-13T15:46:37.345Z,16.90
2023-04-13T15:49:04.351Z,16.90
2023-04-13T15:51:32.345Z,16.80
2023-04-13T15:53:59.256Z,16.80
2023-04-13T15:56:26.262Z,16.80
2023-04-13T15:58:53.106Z,16.80
2023-04-13T16:01:20.104Z,16.60
2023-04-13T16:03:47.260Z,16.60
2023-04-13T16:06:14.424Z,16.60
2023-04-13T16:08:41.706Z,16.60
2023-04-13T16:11:08.545Z,16.50
2023-04-13T16:13:48.830Z,16.50
2023-04-13T16:16:16.977Z,16.50
2023-04-13T16:18:44.138Z,16.50
2023-04-13T16:21:12.442Z,16.50
2023-04-13T16:23:39.326Z,16.40
2023-04-13T16:26:06.887Z,16.40
2023-04-13T16:28:34.641Z,16.20
2023-04-13T16:31:01.661Z,16.10
2023-04-13T16:33:30.210Z,16.10
2023-04-13T16:35:57.189Z,16.00
2023-04-13T16:38:24.067Z,15.90
2023-04-13T16:40:50.998Z,15.90
2023-04-13T16:43:17.950Z,15.80
2023-04-13T16:45:45.009Z,15.80
2023-04-13T16:48:12.252Z,15.70
2023-04-13T16:50:39.129Z,15.70
2023-04-13T16:53:06.585Z,15.70
2023-04-13T16:55:34.863Z,15.60
2023-04-13T16:58:02.445Z,15.60
2023-04-13T17:00:29.600Z,15.60
2023-04-13T17:02:56.863Z,15.50
2023-04-13T17:05:28.449Z,15.50
2023-04-13T17:07:55.454Z,15.50
2023-04-13T17:10:23.187Z,15.40
2023-04-13T17:12:50.093Z,15.40
2023-04-13T17:15:19.628Z,15.40
2023-04-13T17:17:46.806Z,15.30
2023-04-13T17:20:16.824Z,15.30
2023-04-13T17:22:45.032Z,15.20
2023-04-13T17:25:12.705Z,15.20
2023-04-13T17:27:40.189Z,15.10
2023-04-13T17:30:09.344Z,15.10
2023-04-13T17:32:37.095Z,15.10
2023-04-13T17:35:04.416Z,15.10
2023-04-13T17:37:31.454Z,15.10
2023-04-13T17:39:59.469Z,15.10
2023-04-13T17:42:27.584Z,15.00
2023-04-13T17:44:55.058Z,15.00
2023-04-13T17:47:27.801Z,15.00
2023-04-13T17:49:55.603Z,15.00
2023-04-13T17:52:23.172Z,15.00
2023-04-13T17:54:51.500Z,15.00
2023-04-13T17:57:19.043Z,14.90
2023-04-13T17:59:47.674Z,14.90
2023-04-13T18:02:35.228Z,14.90
2023-04-13T18:05:03.868Z,14.90
2023-04-13T18:07:31.312Z,14.80
2023-04-13T18:09:58.294Z,14.80
2023-04-13T18:12:26.430Z,14.80
2023-04-13T18:14:55.218Z,14.70
2023-04-13T18:17:22.996Z,14.70
2023-04-13T18:19:54.486Z,14.70
2023-04-13T18:22:22.185Z,14.70
2023-04-13T18:24:51.098Z,14.60
2023-04-13T18:27:18.387Z,14.60
2023-04-13T18:29:45.710Z,14.60
2023-04-13T18:32:12.929Z,14.50
2023-04-13T18:34:42.792Z,14.50
2023-04-13T18:37:11.925Z,14.50
2023-04-13T18:39:40.025Z,14.50
2023-04-13T18:42:10.174Z,14.40
2023-04-13T18:44:37.491Z,14.40
2023-04-13T18:47:06.887Z,14.30
2023-04-13T18:49:34.287Z,14.30
2023-04-13T18:52:01.949Z,14.20
2023-04-13T18:54:29.518Z,14.20
2023-04-13T18:57:17.131Z,14.20
2023-04-13T18:59:46.500Z,14.20
2023-04-13T19:02:15.742Z,14.10
2023-04-13T19:04:43.715Z,14.10
2023-04-13T19:07:12.698Z,14.00
2023-04-13T19:09:41.774Z,14.00
2023-04-13T19:12:09.619Z,14.00
2023-04-13T19:14:36.950Z,14.00
2023-04-13T19:17:06.778Z,14.00
2023-04-13T19:19:34.099Z,14.00
2023-04-13T19:22:02.326Z,14.00
2023-04-13T19:24:29.891Z,14.00
2023-04-13T19:26:57.285Z,14.00
2023-04-13T19:29:30.510Z,14.00
2023-04-13T19:31:59.562Z,14.00
2023-04-13T19:34:28.019Z,14.00
2023-04-13T19:36:55.540Z,14.00
2023-04-13T19:39:23.068Z,14.00
2023-04-13T19:41:51.923Z,14.00
2023-04-13T19:44:19.659Z,14.00
2023-04-13T19:46:47.811Z,13.90
2023-04-13T19:49:15.262Z,14.00
2023-04-13T19:51:42.987Z,13.90
2023-04-13T19:54:10.291Z,13.90
2023-04-13T19:56:38.183Z,13.90
2023-04-13T19:59:07.087Z,13.90
2023-04-13T20:01:34.854Z,13.90
2023-04-13T20:04:05.019Z,13.90
2023-04-13T20:06:36.080Z,13.80
2023-04-13T20:09:14.936Z,13.80
2023-04-13T20:11:42.120Z,13.70
2023-04-13T20:14:13.239Z,13.60
2023-04-13T20:16:41.784Z,13.60
2023-04-13T20:19:10.362Z,13.60
2023-04-13T20:21:38.288Z,13.60
2023-04-13T20:24:05.511Z,13.60
2023-04-13T20:26:32.816Z,13.60
2023-04-13T20:29:02.500Z,13.60
2023-04-13T20:31:31.115Z,13.50
2023-04-13T20:33:58.765Z,13.60
2023-04-13T20:36:26.343Z,13.50
2023-04-13T20:38:54.373Z,13.50
2023-04-13T20:41:22.044Z,13.50
2023-04-13T20:43:51.442Z,13.50
2023-04-13T20:46:21.760Z,13.50
2023-04-13T20:48:51.535Z,13.50
2023-04-13T20:51:23.191Z,13.50
2023-04-13T20:53:50.249Z,13.50
2023-04-13T20:56:19.117Z,13.50
2023-04-13T20:58:47.906Z,13.40
2023-04-13T21:01:15.580Z,13.30
2023-04-13T21:03:43.146Z,13.20
2023-04-13T21:06:10.145Z,13.10
2023-04-13T21:08:37.090Z,13.00
2023-04-13T21:11:12.931Z,13.00
2023-04-13T21:13:39.964Z,12.90
2023-04-13T21:16:09.080Z,12.90
2023-04-13T21:18:36.842Z,12.90
2023-04-13T21:21:11.406Z,12.80
2023-04-13T21:23:38.364Z,12.70
2023-04-13T21:26:06.694Z,12.70
2023-04-13T21:28:33.544Z,12.70
2023-04-13T21:31:00.463Z,12.70
2023-04-13T21:33:27.363Z,12.80
2023-04-13T21:35:54.272Z,12.80
2023-04-13T21:38:21.168Z,12.80
2023-04-13T21:40:48.053Z,12.80
2023-04-13T21:43:14.986Z,12.80
2023-04-13T21:45:41.899Z,12.70
2023-04-13T21:48:08.824Z,12.80
2023-04-13T21:50:35.721Z,12.70
2023-04-13T21:53:02.592Z,12.60
2023-04-13T21:55:29.445Z,12.60
2023-04-13T21:57:56.762Z,12.60
2023-04-13T22:00:24.359Z,12.50
2023-04-13T22:02:52.276Z,12.50
2023-04-13T22:05:19.451Z,12.50
2023-04-13T22:07:46.630Z,12.50
2023-04-13T22:10:13.544Z,12.50
2023-04-13T22:12:40.550Z,12.50
2023-04-13T22:15:07.986Z,12.50
2023-04-13T22:17:34.998Z,12.50
2023-04-13T22:20:02.129Z,12.50
2023-04-13T22:22:29.156Z,12.50
2023-04-13T22:24:56.011Z,12.50
2023-04-13T22:27:22.884Z,12.40
2023-04-13T22:29:49.824Z,12.40
2023-04-13T22:32:16.816Z,12.40
2023-04-13T22:34:43.691Z,12.40
2023-04-13T22:37:12.332Z,12.30
2023-04-13T22:39:39.828Z,12.30
2023-04-13T22:42:06.695Z,12.30
2023-04-13T22:44:36.895Z,12.20
2023-04-13T22:47:04.697Z,12.20
2023-04-13T22:49:31.838Z,12.10
2023-04-13T22:52:00.322Z,12.20
2023-04-13T22:54:27.270Z,12.10
2023-04-13T22:56:54.162Z,12.10
2023-04-13T22:59:21.253Z,12.10
2023-04-13T23:01:48.270Z,12.20
2023-04-13T23:04:16.236Z,12.10
2023-04-13T23:06:43.380Z,12.20
2023-04-13T23:09:10.272Z,12.20
2023-04-13T23:11:37.796Z,12.10
2023-04-13T23:14:06.718Z,12.20
2023-04-13T23:16:34.511Z,12.20
2023-04-13T23:19:01.659Z,12.20
2023-04-13T23:21:29.678Z,12.20
2023-04-13T23:23:56.713Z,12.20
2023-04-13T23:26:23.654Z,12.20
2023-04-13T23:28:50.667Z,12.20
2023-04-13T23:31:17.663Z,12.20
2023-04-13T23:33:44.709Z,12.20
2023-04-13T23:36:11.863Z,12.20
2023-04-13T23:38:38.855Z,12.20
2023-04-13T23:41:05.916Z,12.10
2023-04-13T23:43:32.746Z,12.20
2023-04-13T23:45:59.657Z,12.10
2023-04-13T23:48:27.353Z,11.90
2023-04-13T23:50:54.568Z,12.20
2023-04-13T23:53:21.461Z,12.20
2023-04-13T23:55:48.337Z,12.20
2023-04-13T23:58:15.483Z,12.20
